createdAt,value
2022-09-09T00:00:25.149Z,0.00
2022-09-09T00:01:25.147Z,0.00
2022-09-09T00:02:25.247Z,0.00
2022-09-09T00:03:25.294Z,0.00
2022-09-09T00:04:25.105Z,0.00
2022-09-09T00:05:25.121Z,0.00
2022-09-09T00:06:25.152Z,0.00
2022-09-09T00:07:25.089Z,0.00
2022-09-09T00:08:25.066Z,0.00
2022-09-09T00:09:25.057Z,0.00
2022-09-09T00:10:25.048Z,0.00
2022-09-09T00:11:29.337Z,0.00
2022-09-09T00:12:26.035Z,0.00
2022-09-09T00:13:25.021Z,0.00
2022-09-09T00:14:25.015Z,0.00
2022-09-09T00:15:24.995Z,0.00
2022-09-09T00:16:25.211Z,0.00
2022-09-09T00:17:24.998Z,0.00
2022-09-09T00:18:24.963Z,0.00
2022-09-09T00:19:24.954Z,0.00
2022-09-09T00:20:24.941Z,0.00
2022-09-09T00:21:24.951Z,0.00
2022-09-09T00:22:24.924Z,0.00
2022-09-09T00:23:24.932Z,0.00
2022-09-09T00:24:24.902Z,0.00
2022-09-09T00:25:24.894Z,0.00
2022-09-09T00:26:24.881Z,0.00
2022-09-09T00:27:24.871Z,0.00
2022-09-09T00:28:24.872Z,0.00
2022-09-09T00:29:24.852Z,0.00
2022-09-09T00:30:24.867Z,0.00
2022-09-09T00:31:24.915Z,0.00
2022-09-09T00:32:24.828Z,0.00
2022-09-09T00:33:24.821Z,0.00
2022-09-09T00:34:24.801Z,0.00
2022-09-09T00:35:24.854Z,0.00
2022-09-09T00:36:24.781Z,0.00
2022-09-09T00:37:24.789Z,0.00
2022-09-09T00:38:24.828Z,0.00
2022-09-09T00:39:24.748Z,0.00
2022-09-09T00:40:24.738Z,0.00
2022-09-09T00:41:24.727Z,0.00
2022-09-09T00:42:24.718Z,0.00
2022-09-09T00:43:24.730Z,0.00
2022-09-09T00:44:24.697Z,0.00
2022-09-09T00:45:24.690Z,0.00
2022-09-09T00:46:24.846Z,0.00
2022-09-09T00:47:24.666Z,0.00
2022-09-09T00:48:24.671Z,0.00
2022-09-09T00:49:24.649Z,0.00
2022-09-09T00:50:24.633Z,0.00
2022-09-09T00:51:24.631Z,0.00
2022-09-09T00:52:24.620Z,0.00
2022-09-09T00:53:24.648Z,0.00
2022-09-09T00:54:24.595Z,0.00
2022-09-09T00:55:24.584Z,0.00
2022-09-09T00:56:24.576Z,0.00
2022-09-09T00:57:24.565Z,0.00
2022-09-09T00:58:24.566Z,0.00
2022-09-09T00:59:28.326Z,0.00
2022-09-09T01:00:24.546Z,0.00
2022-09-09T01:01:24.607Z,0.00
2022-09-09T01:02:24.604Z,0.00
2022-09-09T01:03:24.539Z,0.00
2022-09-09T01:04:24.512Z,0.00
2022-09-09T01:05:24.499Z,0.00
2022-09-09T01:06:24.473Z,0.00
2022-09-09T01:07:24.466Z,0.00
2022-09-09T01:08:24.468Z,0.00
2022-09-09T01:09:24.463Z,0.00
2022-09-09T01:10:24.428Z,0.00
2022-09-09T01:11:24.422Z,0.00
2022-09-09T01:12:24.410Z,0.00
2022-09-09T01:13:24.415Z,0.00
2022-09-09T01:14:24.390Z,0.00
2022-09-09T01:15:24.379Z,0.00
2022-09-09T01:16:24.405Z,0.00
2022-09-09T01:17:24.376Z,0.00
2022-09-09T01:18:24.364Z,0.00
2022-09-09T01:19:24.340Z,0.00
2022-09-09T01:20:24.327Z,0.00
2022-09-09T01:21:24.316Z,0.00
2022-09-09T01:22:24.307Z,0.00
2022-09-09T01:23:24.315Z,0.00
2022-09-09T01:24:24.287Z,0.00
2022-09-09T01:25:24.299Z,0.00
2022-09-09T01:26:24.262Z,0.00
2022-09-09T01:27:24.255Z,0.00
2022-09-09T01:28:24.266Z,0.00
2022-09-09T01:29:24.241Z,0.00
2022-09-09T01:30:24.229Z,0.00
2022-09-09T01:31:24.254Z,0.00
2022-09-09T01:32:24.202Z,0.00
2022-09-09T01:33:24.196Z,0.00
2022-09-09T01:34:24.202Z,0.00
2022-09-09T01:35:24.178Z,0.00
2022-09-09T01:36:24.164Z,0.00
2022-09-09T01:37:24.155Z,0.00
2022-09-09T01:38:24.153Z,0.00
2022-09-09T01:39:24.149Z,0.00
2022-09-09T01:40:24.120Z,0.00
2022-09-09T01:41:24.139Z,0.00
2022-09-09T01:42:24.101Z,0.00
2022-09-09T01:43:24.092Z,0.00
2022-09-09T01:44:24.098Z,0.00
2022-09-09T01:45:24.072Z,0.00
2022-09-09T01:46:24.180Z,0.00
2022-09-09T01:47:24.053Z,0.00
2022-09-09T01:48:24.040Z,0.00
2022-09-09T01:49:24.045Z,0.00
2022-09-09T01:50:24.020Z,0.00
2022-09-09T01:51:24.006Z,0.00
2022-09-09T01:52:24.001Z,0.00
2022-09-09T01:53:23.994Z,0.00
2022-09-09T01:54:23.991Z,0.00
2022-09-09T01:55:23.977Z,0.00
2022-09-09T01:56:23.959Z,0.00
2022-09-09T01:57:23.976Z,0.00
2022-09-09T01:58:23.938Z,0.00
2022-09-09T01:59:23.941Z,0.00
2022-09-09T02:00:23.917Z,0.00
2022-09-09T02:01:24.049Z,0.00
2022-09-09T02:02:23.992Z,0.00
2022-09-09T02:03:23.898Z,0.00
2022-09-09T02:04:23.876Z,0.00
2022-09-09T02:05:23.865Z,0.00
2022-09-09T02:06:23.857Z,0.00
2022-09-09T02:07:23.848Z,0.00
2022-09-09T02:08:23.855Z,0.00
2022-09-09T02:09:23.826Z,0.00
2022-09-09T02:10:23.816Z,0.00
2022-09-09T02:11:23.807Z,0.00
2022-09-09T02:12:23.793Z,0.00
2022-09-09T02:13:23.816Z,0.00
2022-09-09T02:14:23.778Z,0.00
2022-09-09T02:15:23.765Z,0.00
2022-09-09T02:16:23.801Z,0.00
2022-09-09T02:17:23.745Z,0.00
2022-09-09T02:18:23.746Z,0.00
2022-09-09T02:19:23.721Z,0.00
2022-09-09T02:20:23.725Z,0.00
2022-09-09T02:21:23.700Z,0.00
2022-09-09T02:22:23.692Z,0.00
2022-09-09T02:23:23.842Z,0.00
2022-09-09T02:24:23.676Z,0.00
2022-09-09T02:25:23.760Z,0.00
2022-09-09T02:26:23.661Z,0.00
2022-09-09T02:27:23.668Z,0.00
2022-09-09T02:28:23.631Z,0.00
2022-09-09T02:29:23.654Z,0.00
2022-09-09T02:30:23.672Z,0.00
2022-09-09T02:31:23.602Z,0.00
2022-09-09T02:32:23.599Z,0.00
2022-09-09T02:33:23.578Z,0.00
2022-09-09T02:34:23.589Z,0.00
2022-09-09T02:35:23.558Z,0.00
2022-09-09T02:36:23.581Z,0.00
2022-09-09T02:37:23.539Z,0.00
2022-09-09T02:38:23.554Z,0.00
2022-09-09T02:39:23.529Z,0.00
2022-09-09T02:40:23.507Z,0.00
2022-09-09T02:41:23.496Z,0.00
2022-09-09T02:42:23.503Z,0.00
2022-09-09T02:43:23.493Z,0.00
2022-09-09T02:44:23.468Z,0.00
2022-09-09T02:45:23.475Z,0.00
2022-09-09T02:46:23.524Z,0.00
2022-09-09T02:47:23.433Z,0.00
2022-09-09T02:48:23.440Z,0.00
2022-09-09T02:49:23.418Z,0.00
2022-09-09T02:50:23.404Z,0.00
2022-09-09T02:51:23.393Z,0.00
2022-09-09T02:52:23.382Z,0.00
2022-09-09T02:53:23.387Z,0.00
2022-09-09T02:54:23.364Z,0.00
2022-09-09T02:55:23.352Z,0.00
2022-09-09T02:56:23.343Z,0.00
2022-09-09T02:57:23.335Z,0.00
2022-09-09T02:58:23.345Z,0.00
2022-09-09T02:59:23.315Z,0.00
2022-09-09T03:00:23.314Z,0.00
2022-09-09T03:01:23.404Z,0.00
2022-09-09T03:02:23.352Z,0.00
2022-09-09T03:03:23.266Z,0.00
2022-09-09T03:04:23.276Z,0.00
2022-09-09T03:05:23.247Z,0.00
2022-09-09T03:06:23.239Z,0.00
2022-09-09T03:07:23.233Z,0.00
2022-09-09T03:08:23.219Z,0.00
2022-09-09T03:09:23.227Z,0.00
2022-09-09T03:10:23.199Z,0.00
2022-09-09T03:11:23.186Z,0.00
2022-09-09T03:12:23.179Z,0.00
2022-09-09T03:13:23.163Z,0.00
2022-09-09T03:14:23.172Z,0.00
2022-09-09T03:15:23.144Z,0.00
2022-09-09T03:16:23.159Z,0.00
2022-09-09T03:17:23.148Z,0.00
2022-09-09T03:18:23.117Z,0.00
2022-09-09T03:19:23.118Z,0.00
2022-09-09T03:20:23.092Z,0.00
2022-09-09T03:21:23.084Z,0.00
2022-09-09T03:22:23.075Z,0.00
2022-09-09T03:23:23.062Z,0.00
2022-09-09T03:24:23.064Z,0.00
2022-09-09T03:25:23.042Z,0.00
2022-09-09T03:26:23.033Z,0.00
2022-09-09T03:27:23.019Z,0.00
2022-09-09T03:28:23.016Z,0.00
2022-09-09T03:29:23.023Z,0.00
2022-09-09T03:30:22.991Z,0.00
2022-09-09T03:31:23.035Z,0.00
2022-09-09T03:32:22.969Z,0.00
2022-09-09T03:33:22.980Z,0.00
2022-09-09T03:34:22.966Z,0.00
2022-09-09T03:35:22.938Z,0.00
2022-09-09T03:36:22.937Z,0.00
2022-09-09T03:37:22.917Z,0.00
2022-09-09T03:38:22.912Z,0.00
2022-09-09T03:39:22.912Z,0.00
2022-09-09T03:40:22.887Z,0.00
2022-09-09T03:41:22.876Z,0.00
2022-09-09T03:42:22.868Z,0.00
2022-09-09T03:43:22.861Z,0.00
2022-09-09T03:44:22.862Z,0.00
2022-09-09T03:45:22.853Z,0.00
2022-09-09T03:46:22.823Z,0.00
2022-09-09T03:47:22.813Z,0.00
2022-09-09T03:48:22.804Z,0.00
2022-09-09T03:49:22.834Z,0.00
2022-09-09T03:50:22.783Z,0.00
2022-09-09T03:51:22.771Z,0.00
2022-09-09T03:52:23.865Z,0.00
2022-09-09T03:53:22.756Z,0.00
2022-09-09T03:54:22.741Z,0.00
2022-09-09T03:55:22.745Z,0.00
2022-09-09T03:56:22.745Z,0.00
2022-09-09T03:57:22.722Z,0.00
2022-09-09T03:58:22.702Z,0.00
2022-09-09T03:59:22.697Z,0.00
2022-09-09T04:00:22.695Z,0.00
2022-09-09T04:01:22.767Z,0.00
2022-09-09T04:02:22.786Z,0.00
2022-09-09T04:03:25.905Z,0.00
2022-09-09T04:04:23.737Z,0.00
2022-09-09T04:05:22.678Z,0.00
2022-09-09T04:06:22.616Z,0.00
2022-09-09T04:07:22.606Z,0.00
2022-09-09T04:08:22.596Z,0.00
2022-09-09T04:09:22.585Z,0.00
2022-09-09T04:10:22.597Z,0.00
2022-09-09T04:11:22.563Z,0.00
2022-09-09T04:12:22.554Z,0.00
2022-09-09T04:13:22.544Z,0.00
2022-09-09T04:14:22.533Z,0.00
2022-09-09T04:15:22.535Z,0.00
2022-09-09T04:16:22.618Z,0.00
2022-09-09T04:17:22.504Z,0.00
2022-09-09T04:18:22.494Z,0.00
2022-09-09T04:19:22.483Z,0.00
2022-09-09T04:20:22.488Z,0.00
2022-09-09T04:21:22.481Z,0.00
2022-09-09T04:22:22.450Z,0.00
2022-09-09T04:23:22.456Z,0.00
2022-09-09T04:24:22.448Z,0.00
2022-09-09T04:25:22.433Z,0.00
2022-09-09T04:26:22.419Z,0.00
2022-09-09T04:27:22.396Z,0.00
2022-09-09T04:28:22.389Z,0.00
2022-09-09T04:29:22.377Z,0.00
2022-09-09T04:30:22.382Z,0.00
2022-09-09T04:31:22.469Z,0.00
2022-09-09T04:32:22.348Z,0.00
2022-09-09T04:33:22.336Z,0.00
2022-09-09T04:34:22.333Z,0.00
2022-09-09T04:35:22.328Z,0.00
2022-09-09T04:36:22.339Z,0.00
2022-09-09T04:37:22.314Z,0.00
2022-09-09T04:38:22.286Z,0.00
2022-09-09T04:39:22.289Z,0.00
2022-09-09T04:40:22.277Z,0.00
2022-09-09T04:41:22.252Z,0.00
2022-09-09T04:42:22.249Z,0.00
2022-09-09T04:43:22.232Z,0.00
2022-09-09T04:44:22.223Z,0.00
2022-09-09T04:45:22.247Z,0.00
2022-09-09T04:46:22.205Z,0.00
2022-09-09T04:47:22.189Z,0.00
2022-09-09T04:48:22.179Z,0.00
2022-09-09T04:49:22.172Z,0.00
2022-09-09T04:50:22.173Z,0.00
2022-09-09T04:51:22.146Z,0.00
2022-09-09T04:52:22.143Z,0.00
2022-09-09T04:53:22.150Z,0.00
2022-09-09T04:54:22.119Z,0.00
2022-09-09T04:55:22.534Z,0.00
2022-09-09T04:56:22.097Z,0.00
2022-09-09T04:57:22.086Z,0.00
2022-09-09T04:58:22.079Z,0.00
2022-09-09T04:59:22.066Z,0.00
2022-09-09T05:00:22.071Z,0.00
2022-09-09T05:01:22.223Z,0.00
2022-09-09T05:02:22.107Z,0.00
2022-09-09T05:03:22.048Z,0.00
2022-09-09T05:04:22.018Z,0.00
2022-09-09T05:05:22.004Z,0.00
2022-09-09T05:06:22.008Z,0.00
2022-09-09T05:07:21.981Z,0.00
2022-09-09T05:08:21.974Z,0.00
2022-09-09T05:09:21.983Z,0.00
2022-09-09T05:10:21.970Z,0.00
2022-09-09T05:11:21.940Z,0.00
2022-09-09T05:12:21.931Z,0.00
2022-09-09T05:13:21.927Z,0.00
2022-09-09T05:14:21.911Z,0.00
2022-09-09T05:15:22.042Z,0.00
2022-09-09T05:16:22.021Z,0.00
2022-09-09T05:17:21.876Z,0.00
2022-09-09T05:18:21.868Z,0.00
2022-09-09T05:19:21.859Z,0.00
2022-09-09T05:20:21.922Z,0.00
2022-09-09T05:21:21.839Z,5.62
2022-09-09T05:22:21.825Z,5.62
2022-09-09T05:23:21.812Z,5.62
2022-09-09T05:24:21.811Z,5.62
2022-09-09T05:25:21.830Z,5.62
2022-09-09T05:26:21.784Z,5.62
2022-09-09T05:27:21.772Z,5.62
2022-09-09T05:28:21.765Z,5.62
2022-09-09T05:29:21.752Z,5.62
2022-09-09T05:30:21.753Z,11.25
2022-09-09T05:31:21.803Z,11.25
2022-09-09T05:32:21.724Z,11.25
2022-09-09T05:33:21.709Z,11.25
2022-09-09T05:34:21.707Z,11.25
2022-09-09T05:35:21.708Z,16.88
2022-09-09T05:36:21.688Z,16.88
2022-09-09T05:37:21.669Z,16.88
2022-09-09T05:38:23.825Z,16.88
2022-09-09T05:39:23.527Z,16.88
2022-09-09T05:40:21.732Z,16.88
2022-09-09T05:41:21.652Z,16.88
2022-09-09T05:42:21.691Z,16.88
2022-09-09T05:43:21.619Z,16.88
2022-09-09T05:44:21.604Z,16.88
2022-09-09T05:45:21.612Z,16.88
2022-09-09T05:46:21.674Z,16.88
2022-09-09T05:47:21.566Z,16.88
2022-09-09T05:48:21.570Z,16.88
2022-09-09T05:49:21.542Z,16.88
2022-09-09T05:50:21.550Z,11.25
2022-09-09T05:51:21.522Z,11.25
2022-09-09T05:52:21.520Z,11.25
2022-09-09T05:53:21.502Z,11.25
2022-09-09T05:54:21.494Z,16.88
2022-09-09T05:55:21.498Z,16.88
2022-09-09T05:56:21.472Z,16.88
2022-09-09T05:57:21.482Z,16.88
2022-09-09T05:58:21.451Z,16.88
2022-09-09T05:59:21.447Z,16.88
2022-09-09T06:00:21.459Z,22.50
2022-09-09T06:01:21.422Z,22.50
2022-09-09T06:02:21.662Z,16.88
2022-09-09T06:03:21.467Z,22.50
2022-09-09T06:04:21.388Z,22.50
2022-09-09T06:05:21.397Z,16.88
2022-09-09T06:06:21.374Z,16.88
2022-09-09T06:07:21.359Z,11.25
2022-09-09T06:08:21.347Z,11.25
2022-09-09T06:09:21.335Z,11.25
2022-09-09T06:10:21.348Z,11.25
2022-09-09T06:11:21.323Z,11.25
2022-09-09T06:12:21.312Z,11.25
2022-09-09T06:13:21.315Z,11.25
2022-09-09T06:14:21.287Z,16.88
2022-09-09T06:15:21.279Z,22.50
2022-09-09T06:16:21.453Z,22.50
2022-09-09T06:17:21.263Z,22.50
2022-09-09T06:18:21.250Z,22.50
2022-09-09T06:19:21.235Z,28.12
2022-09-09T06:20:21.221Z,28.12
2022-09-09T06:21:21.227Z,28.12
2022-09-09T06:22:21.202Z,28.12
2022-09-09T06:23:21.195Z,28.12
2022-09-09T06:24:21.189Z,33.75
2022-09-09T06:25:21.172Z,28.12
2022-09-09T06:26:21.176Z,28.12
2022-09-09T06:27:21.155Z,22.50
2022-09-09T06:28:21.145Z,22.50
2022-09-09T06:29:21.157Z,22.50
2022-09-09T06:30:21.122Z,16.88
2022-09-09T06:31:21.157Z,22.50
2022-09-09T06:32:21.100Z,28.12
2022-09-09T06:33:21.091Z,22.50
2022-09-09T06:34:21.099Z,22.50
2022-09-09T06:35:21.072Z,28.12
2022-09-09T06:36:21.081Z,33.75
2022-09-09T06:37:21.051Z,39.38
2022-09-09T06:38:21.037Z,50.62
2022-09-09T06:39:21.027Z,45.00
2022-09-09T06:40:21.019Z,45.00
2022-09-09T06:41:21.056Z,50.62
2022-09-09T06:42:20.998Z,45.00
2022-09-09T06:43:20.987Z,50.62
2022-09-09T06:44:20.974Z,50.62
2022-09-09T06:45:20.989Z,50.62
2022-09-09T06:46:21.054Z,50.62
2022-09-09T06:47:20.944Z,45.00
2022-09-09T06:48:20.938Z,45.00
2022-09-09T06:49:20.926Z,45.00
2022-09-09T06:50:20.914Z,45.00
2022-09-09T06:51:20.921Z,45.00
2022-09-09T06:52:20.894Z,50.62
2022-09-09T06:53:20.890Z,50.62
2022-09-09T06:54:20.876Z,50.62
2022-09-09T06:55:20.863Z,56.25
2022-09-09T06:56:20.865Z,56.25
2022-09-09T06:57:36.379Z,56.25
2022-09-09T06:58:21.831Z,56.25
2022-09-09T06:59:20.823Z,50.62
2022-09-09T07:00:20.819Z,50.62
2022-09-09T07:01:20.915Z,50.62
2022-09-09T07:02:20.874Z,45.00
2022-09-09T07:03:20.782Z,45.00
2022-09-09T07:04:20.776Z,56.25
2022-09-09T07:05:20.761Z,56.25
2022-09-09T07:06:20.795Z,56.25
2022-09-09T07:07:20.742Z,56.25
2022-09-09T07:08:20.733Z,56.25
2022-09-09T07:09:20.722Z,56.25
2022-09-09T07:10:20.709Z,61.88
2022-09-09T07:11:20.714Z,56.25
2022-09-09T07:12:20.692Z,67.50
2022-09-09T07:13:20.682Z,61.88
2022-09-09T07:14:21.576Z,56.25
2022-09-09T07:15:20.659Z,61.88
2022-09-09T07:16:20.807Z,56.25
2022-09-09T07:17:20.662Z,56.25
2022-09-09T07:18:20.628Z,56.25
2022-09-09T07:19:20.619Z,50.62
2022-09-09T07:20:20.604Z,61.88
2022-09-09T07:21:20.610Z,56.25
2022-09-09T07:22:20.585Z,61.88
2022-09-09T07:23:20.577Z,56.25
2022-09-09T07:24:20.565Z,56.25
2022-09-09T07:25:20.554Z,50.62
2022-09-09T07:26:20.556Z,61.88
2022-09-09T07:27:20.535Z,61.88
2022-09-09T07:28:20.522Z,61.88
2022-09-09T07:29:21.140Z,61.88
2022-09-09T07:30:24.276Z,56.25
2022-09-09T07:31:21.663Z,56.25
2022-09-09T07:32:20.482Z,61.88
2022-09-09T07:33:20.497Z,61.88
2022-09-09T07:34:28.094Z,67.50
2022-09-09T07:35:20.457Z,67.50
2022-09-09T07:36:20.462Z,67.50
2022-09-09T07:37:20.433Z,61.88
2022-09-09T07:38:20.422Z,61.88
2022-09-09T07:39:20.421Z,61.88
2022-09-09T07:40:20.470Z,61.88
2022-09-09T07:41:20.393Z,61.88
2022-09-09T07:42:20.394Z,67.50
2022-09-09T07:43:21.110Z,67.50
2022-09-09T07:44:20.362Z,73.12
2022-09-09T07:45:20.348Z,73.12
2022-09-09T07:46:20.473Z,61.88
2022-09-09T07:47:20.345Z,67.50
2022-09-09T07:48:20.320Z,67.50
2022-09-09T07:49:27.480Z,73.12
2022-09-09T07:50:21.341Z,90.00
2022-09-09T07:51:20.287Z,73.12
2022-09-09T07:52:20.761Z,78.75
2022-09-09T07:53:20.272Z,78.75
2022-09-09T07:54:20.259Z,84.38
2022-09-09T07:55:20.246Z,73.12
2022-09-09T07:56:20.272Z,67.50
2022-09-09T07:57:20.236Z,73.12
2022-09-09T07:58:20.213Z,67.50
2022-09-09T07:59:20.206Z,73.12
2022-09-09T08:00:20.320Z,78.75
2022-09-09T08:01:20.233Z,73.12
2022-09-09T08:02:20.183Z,67.50
2022-09-09T08:03:20.193Z,67.50
2022-09-09T08:04:20.149Z,61.88
2022-09-09T08:05:20.159Z,67.50
2022-09-09T08:06:20.130Z,78.75
2022-09-09T08:07:20.130Z,78.75
2022-09-09T08:08:20.105Z,78.75
2022-09-09T08:09:20.097Z,67.50
2022-09-09T08:10:20.143Z,67.50
2022-09-09T08:11:20.075Z,67.50
2022-09-09T08:12:20.083Z,73.12
2022-09-09T08:13:20.056Z,61.88
2022-09-09T08:14:20.041Z,61.88
2022-09-09T08:15:20.038Z,61.88
2022-09-09T08:16:20.075Z,67.50
2022-09-09T08:17:20.028Z,67.50
2022-09-09T08:18:20.005Z,73.12
2022-09-09T08:19:20.009Z,67.50
2022-09-09T08:20:19.979Z,67.50
2022-09-09T08:21:20.031Z,61.88
2022-09-09T08:22:19.976Z,61.88
2022-09-09T08:23:19.952Z,56.25
2022-09-09T08:24:19.938Z,56.25
2022-09-09T08:25:19.938Z,50.62
2022-09-09T08:26:19.921Z,56.25
2022-09-09T08:27:19.938Z,67.50
2022-09-09T08:28:19.894Z,73.12
2022-09-09T08:29:19.889Z,73.12
2022-09-09T08:30:19.897Z,78.75
2022-09-09T08:31:20.044Z,90.00
2022-09-09T08:32:19.869Z,112.50
2022-09-09T08:33:19.846Z,90.00
2022-09-09T08:34:19.835Z,90.00
2022-09-09T08:35:19.825Z,90.00
2022-09-09T08:36:19.814Z,78.75
2022-09-09T08:37:19.846Z,61.88
2022-09-09T08:38:19.792Z,67.50
2022-09-09T08:39:19.784Z,73.12
2022-09-09T08:40:19.824Z,73.12
2022-09-09T08:41:19.764Z,73.12
2022-09-09T08:42:19.777Z,73.12
2022-09-09T08:43:19.745Z,67.50
2022-09-09T08:44:19.730Z,61.88
2022-09-09T08:45:19.722Z,61.88
2022-09-09T08:46:19.754Z,67.50
2022-09-09T08:47:19.713Z,73.12
2022-09-09T08:48:19.698Z,73.12
2022-09-09T08:49:19.681Z,78.75
2022-09-09T08:50:19.667Z,78.75
2022-09-09T08:51:19.665Z,78.75
2022-09-09T08:52:19.746Z,73.12
2022-09-09T08:53:19.670Z,73.12
2022-09-09T08:54:41.456Z,73.12
2022-09-09T08:55:20.615Z,78.75
2022-09-09T08:56:19.606Z,90.00
2022-09-09T08:57:19.610Z,90.00
2022-09-09T08:58:19.586Z,101.25
2022-09-09T08:59:19.576Z,135.00
2022-09-09T09:00:19.584Z,106.88
2022-09-09T09:01:19.643Z,101.25
2022-09-09T09:02:19.562Z,101.25
2022-09-09T09:03:19.536Z,101.25
2022-09-09T09:04:19.559Z,95.62
2022-09-09T09:05:19.514Z,90.00
2022-09-09T09:06:19.504Z,95.62
2022-09-09T09:07:19.509Z,90.00
2022-09-09T09:08:19.482Z,90.00
2022-09-09T09:09:19.497Z,84.38
2022-09-09T09:10:40.355Z,78.75
2022-09-09T09:11:20.458Z,73.12
2022-09-09T09:12:19.468Z,73.12
2022-09-09T09:13:19.429Z,67.50
2022-09-09T09:14:19.446Z,67.50
2022-09-09T09:15:19.426Z,61.88
2022-09-09T09:16:19.466Z,56.25
2022-09-09T09:17:19.402Z,56.25
2022-09-09T09:18:19.379Z,56.25
2022-09-09T09:19:19.368Z,56.25
2022-09-09T09:20:19.361Z,61.88
2022-09-09T09:21:19.347Z,61.88
2022-09-09T09:22:19.350Z,61.88
2022-09-09T09:23:19.326Z,61.88
2022-09-09T09:24:21.506Z,56.25
2022-09-09T09:25:19.390Z,56.25
2022-09-09T09:26:19.295Z,61.88
2022-09-09T09:27:19.307Z,73.12
2022-09-09T09:28:19.271Z,90.00
2022-09-09T09:29:19.268Z,78.75
2022-09-09T09:30:28.510Z,78.75
2022-09-09T09:31:20.278Z,78.75
2022-09-09T09:32:19.243Z,78.75
2022-09-09T09:33:19.224Z,84.38
2022-09-09T09:34:19.209Z,84.38
2022-09-09T09:35:19.201Z,90.00
2022-09-09T09:36:19.189Z,90.00
2022-09-09T09:37:19.196Z,84.38
2022-09-09T09:40:20.148Z,95.62
2022-09-09T09:41:19.174Z,95.62
2022-09-09T09:42:21.776Z,90.00
2022-09-09T09:43:19.649Z,78.75
2022-09-09T09:44:19.105Z,95.62
2022-09-09T09:45:19.104Z,84.38
2022-09-09T09:46:19.157Z,90.00
2022-09-09T09:47:19.247Z,95.62
2022-09-09T09:48:19.091Z,95.62
2022-09-09T09:49:19.061Z,101.25
2022-09-09T09:50:19.041Z,123.75
2022-09-09T09:51:19.032Z,135.00
2022-09-09T09:52:19.045Z,112.50
2022-09-09T09:53:19.032Z,118.12
2022-09-09T09:54:19.001Z,118.12
2022-09-09T09:55:18.997Z,101.25
2022-09-09T09:56:18.979Z,112.50
2022-09-09T09:57:19.036Z,106.88
2022-09-09T09:58:18.990Z,101.25
2022-09-09T09:59:23.787Z,123.75
2022-09-09T10:00:19.994Z,135.00
2022-09-09T10:01:18.997Z,123.75
2022-09-09T10:02:18.918Z,123.75
2022-09-09T10:03:18.921Z,118.12
2022-09-09T10:04:18.947Z,118.12
2022-09-09T10:05:22.076Z,118.12
2022-09-09T10:06:19.879Z,123.75
2022-09-09T10:07:18.867Z,118.12
2022-09-09T10:08:18.869Z,112.50
2022-09-09T10:09:18.845Z,106.88
2022-09-09T10:10:18.832Z,106.88
2022-09-09T10:11:18.823Z,106.88
2022-09-09T10:12:18.854Z,112.50
2022-09-09T10:13:18.840Z,112.50
2022-09-09T10:14:19.657Z,106.88
2022-09-09T10:15:18.785Z,112.50
2022-09-09T10:16:18.840Z,95.62
2022-09-09T10:17:18.834Z,101.25
2022-09-09T10:18:18.792Z,106.88
2022-09-09T10:19:18.740Z,95.62
2022-09-09T10:20:18.733Z,90.00
2022-09-09T10:21:18.729Z,90.00
2022-09-09T10:22:18.712Z,95.62
2022-09-09T10:23:18.717Z,101.25
2022-09-09T10:24:18.723Z,112.50
2022-09-09T10:25:18.685Z,106.88
2022-09-09T10:26:18.669Z,106.88
2022-09-09T10:27:18.657Z,95.62
2022-09-09T10:28:18.664Z,84.38
2022-09-09T10:29:18.670Z,84.38
2022-09-09T10:30:18.630Z,90.00
2022-09-09T10:31:18.770Z,90.00
2022-09-09T10:32:18.611Z,90.00
2022-09-09T10:33:18.609Z,95.62
2022-09-09T10:34:18.591Z,101.25
2022-09-09T10:35:18.578Z,101.25
2022-09-09T10:36:18.571Z,95.62
2022-09-09T10:37:18.556Z,90.00
2022-09-09T10:38:18.569Z,90.00
2022-09-09T10:39:18.553Z,90.00
2022-09-09T10:40:18.573Z,90.00
2022-09-09T10:41:18.551Z,90.00
2022-09-09T10:42:18.521Z,101.25
2022-09-09T10:43:18.511Z,112.50
2022-09-09T10:44:18.498Z,78.75
2022-09-09T10:45:18.494Z,78.75
2022-09-09T10:46:18.563Z,78.75
2022-09-09T10:47:18.455Z,84.38
2022-09-09T10:48:18.452Z,84.38
2022-09-09T10:49:22.839Z,90.00
2022-09-09T10:50:18.439Z,90.00
2022-09-09T10:51:18.414Z,78.75
2022-09-09T10:52:18.522Z,67.50
2022-09-09T10:53:18.395Z,67.50
2022-09-09T10:54:18.397Z,78.75
2022-09-09T10:55:18.377Z,90.00
2022-09-09T10:56:18.372Z,84.38
2022-09-09T10:57:18.355Z,140.62
2022-09-09T10:58:18.352Z,95.62
2022-09-09T10:59:18.350Z,90.00
2022-09-09T11:00:18.329Z,90.00
2022-09-09T11:01:19.220Z,90.00
2022-09-09T11:02:18.397Z,90.00
2022-09-09T11:03:18.291Z,84.38
2022-09-09T11:04:18.390Z,78.75
2022-09-09T11:05:18.274Z,73.12
2022-09-09T11:06:18.334Z,73.12
2022-09-09T11:07:18.257Z,73.12
2022-09-09T11:08:18.297Z,78.75
2022-09-09T11:09:18.259Z,95.62
2022-09-09T11:10:18.222Z,118.12
2022-09-09T11:11:18.209Z,129.38
2022-09-09T11:12:18.295Z,230.62
2022-09-09T11:13:18.193Z,135.00
2022-09-09T11:14:18.194Z,135.00
2022-09-09T11:15:18.191Z,140.62
2022-09-09T11:16:18.206Z,146.25
2022-09-09T11:17:18.167Z,146.25
2022-09-09T11:18:18.136Z,146.25
2022-09-09T11:19:18.143Z,112.50
2022-09-09T11:20:18.123Z,112.50
2022-09-09T11:21:18.116Z,112.50
2022-09-09T11:22:18.230Z,112.50
2022-09-09T11:23:18.150Z,112.50
2022-09-09T11:24:18.108Z,95.62
2022-09-09T11:25:18.070Z,84.38
2022-09-09T11:26:18.060Z,78.75
2022-09-09T11:27:18.044Z,84.38
2022-09-09T11:28:18.041Z,84.38
2022-09-09T11:29:18.821Z,84.38
2022-09-09T11:30:37.637Z,90.00
2022-09-09T11:31:19.055Z,95.62
2022-09-09T11:32:18.148Z,95.62
2022-09-09T11:33:18.007Z,106.88
2022-09-09T11:34:17.979Z,135.00
2022-09-09T11:35:17.977Z,202.50
2022-09-09T11:36:17.956Z,264.38
2022-09-09T11:37:17.951Z,163.12
2022-09-09T11:38:17.937Z,258.75
2022-09-09T11:39:17.927Z,236.25
2022-09-09T11:40:17.945Z,123.75
2022-09-09T11:41:21.608Z,101.25
2022-09-09T11:42:17.967Z,101.25
2022-09-09T11:43:17.884Z,101.25
2022-09-09T11:44:17.876Z,101.25
2022-09-09T11:45:17.876Z,101.25
2022-09-09T11:46:17.916Z,202.50
2022-09-09T11:47:17.874Z,112.50
2022-09-09T11:48:17.831Z,129.38
2022-09-09T11:49:17.846Z,230.62
2022-09-09T11:50:17.826Z,135.00
2022-09-09T11:51:17.799Z,180.00
2022-09-09T11:52:17.789Z,202.50
2022-09-09T11:53:17.780Z,258.75
2022-09-09T11:54:17.770Z,208.12
2022-09-09T11:55:17.786Z,258.75
2022-09-09T11:56:18.698Z,241.88
2022-09-09T11:57:17.737Z,157.50
2022-09-09T11:58:17.731Z,247.50
2022-09-09T11:59:17.717Z,219.38
2022-09-09T12:00:17.726Z,146.25
2022-09-09T12:01:17.700Z,129.38
2022-09-09T12:02:17.815Z,118.12
2022-09-09T12:03:17.674Z,202.50
2022-09-09T12:04:22.024Z,247.50
2022-09-09T12:05:17.755Z,241.88
2022-09-09T12:06:17.643Z,241.88
2022-09-09T12:07:17.635Z,241.88
2022-09-09T12:08:17.626Z,236.25
2022-09-09T12:09:17.617Z,241.88
2022-09-09T12:10:17.628Z,247.50
2022-09-09T12:11:17.594Z,247.50
2022-09-09T12:12:17.582Z,253.12
2022-09-09T12:13:17.571Z,253.12
2022-09-09T12:14:17.564Z,253.12
2022-09-09T12:15:17.565Z,241.88
2022-09-09T12:16:17.669Z,258.75
2022-09-09T12:17:17.541Z,270.00
2022-09-09T12:18:17.530Z,123.75
2022-09-09T12:19:17.513Z,270.00
2022-09-09T12:20:17.522Z,129.38
2022-09-09T12:21:17.512Z,129.38
2022-09-09T12:22:17.482Z,129.38
2022-09-09T12:23:17.470Z,129.38
2022-09-09T12:24:17.463Z,123.75
2022-09-09T12:25:21.387Z,101.25
2022-09-09T12:26:18.439Z,95.62
2022-09-09T12:27:17.429Z,95.62
2022-09-09T12:28:17.426Z,106.88
2022-09-09T12:29:17.411Z,106.88
2022-09-09T12:30:17.421Z,106.88
2022-09-09T12:31:17.412Z,106.88
2022-09-09T12:32:17.384Z,106.88
2022-09-09T12:33:17.388Z,106.88
2022-09-09T12:34:17.369Z,106.88
2022-09-09T12:35:17.361Z,140.62
2022-09-09T12:36:17.340Z,101.25
2022-09-09T12:37:17.353Z,95.62
2022-09-09T12:38:18.214Z,112.50
2022-09-09T12:39:17.308Z,106.88
2022-09-09T12:40:17.369Z,112.50
2022-09-09T12:41:17.287Z,123.75
2022-09-09T12:42:17.287Z,123.75
2022-09-09T12:43:17.274Z,129.38
2022-09-09T12:44:17.259Z,123.75
2022-09-09T12:45:17.412Z,258.75
2022-09-09T12:46:17.343Z,270.00
2022-09-09T12:47:17.226Z,258.75
2022-09-09T12:48:17.216Z,202.50
2022-09-09T12:49:17.206Z,208.12
2022-09-09T12:50:17.208Z,90.00
2022-09-09T12:51:17.199Z,90.00
2022-09-09T12:52:17.175Z,73.12
2022-09-09T12:53:17.186Z,73.12
2022-09-09T12:54:17.152Z,84.38
2022-09-09T12:55:17.153Z,101.25
2022-09-09T12:56:17.135Z,112.50
2022-09-09T12:57:17.137Z,129.38
2022-09-09T12:58:17.114Z,168.75
2022-09-09T12:59:17.101Z,135.00
2022-09-09T13:00:17.125Z,135.00